Apex, North Carolina
Current Conditions -  °F | °C
As of 8:51 PM on Saturday 22 Nov 2014 (Local Time) from KRDU Reporting Station
Scattered Clouds Scattered Clouds  
Wind Chill:   Ceiling: Unl
Heat Index:   Visibility: 10mi
Dew Point: -7°   Wind: 0mph
Humidity: 50%   Direction: NA
Pressure: 30.36"   Gusts: NA
Location:  35.73°N, 78.84°W
Report Text: KRDU 230151Z 00000KT 10SM SCT250 03/M07 A3036 RMK AO2 SLP284 T00281067 $
Loading
Personal Weather Stations






























Interactive Weather Map New forecast layout! Learn more

10-Day Weather Forecast

Advertisements
Track Severe Weather on mobile